sensor_id;sensor_type;location;lat;lon;timestamp;pressure;altitude;pressure_sealevel;temperature;humidity
64616;BME280;51027;42.162;24.754;2024-03-02T04:33:59;99321.59;;;7.83;100.00
64616;BME280;51027;42.162;24.754;2024-03-02T04:36:25;99300.13;;;7.97;100.00
64616;BME280;51027;42.162;24.754;2024-03-02T04:38:50;99315.94;;;7.95;100.00
64616;BME280;51027;42.162;24.754;2024-03-02T04:41:15;99316.00;;;7.94;100.00
64616;BME280;51027;42.162;24.754;2024-03-02T04:43:41;99295.50;;;8.05;100.00
64616;BME280;51027;42.162;24.754;2024-03-02T04:46:07;99295.72;;;7.99;100.00
64616;BME280;51027;42.162;24.754;2024-03-02T04:48:32;99307.06;;;7.99;100.00
64616;BME280;51027;42.162;24.754;2024-03-02T04:50:58;99306.22;;;7.99;100.00
64616;BME280;51027;42.162;24.754;2024-03-02T04:53:23;99304.75;;;7.90;100.00
64616;BME280;51027;42.162;24.754;2024-03-02T04:55:48;99309.28;;;7.85;100.00
64616;BME280;51027;42.162;24.754;2024-03-02T04:58:20;99313.31;;;7.95;100.00
64616;BME280;51027;42.162;24.754;2024-03-02T05:00:45;99319.16;;;8.03;100.00
64616;BME280;51027;42.162;24.754;2024-03-02T05:03:12;99297.97;;;8.09;100.00
64616;BME280;51027;42.162;24.754;2024-03-02T05:05:37;99303.88;;;8.15;100.00
64616;BME280;51027;42.162;24.754;2024-03-02T05:08:03;99308.59;;;8.05;100.00
64616;BME280;51027;42.162;24.754;2024-03-02T05:10:29;99315.19;;;8.17;100.00
64616;BME280;51027;42.162;24.754;2024-03-02T05:12:54;99328.22;;;8.20;100.00
64616;BME280;51027;42.162;24.754;2024-03-02T05:15:24;99329.22;;;8.16;100.00
64616;BME280;51027;42.162;24.754;2024-03-02T05:17:50;99330.75;;;7.96;100.00
64616;BME280;51027;42.162;24.754;2024-03-02T05:20:16;99322.50;;;8.07;100.00
64616;BME280;51027;42.162;24.754;2024-03-02T05:22:42;99328.03;;;8.24;100.00
64616;BME280;51027;42.162;24.754;2024-03-02T05:25:08;99335.25;;;7.93;100.00
64616;BME280;51027;42.162;24.754;2024-03-02T05:27:35;99320.44;;;7.92;100.00
64616;BME280;51027;42.162;24.754;2024-03-02T05:30:01;99331.03;;;8.14;100.00
64616;BME280;51027;42.162;24.754;2024-03-02T05:32:27;99331.25;;;8.32;100.00
64616;BME280;51027;42.162;24.754;2024-03-02T05:34:52;99332.22;;;8.30;100.00
64616;BME280;51027;42.162;24.754;2024-03-02T05:37:18;99337.72;;;8.22;100.00
64616;BME280;51027;42.162;24.754;2024-03-02T05:39:43;99331.69;;;8.20;100.00
64616;BME280;51027;42.162;24.754;2024-03-02T05:42:09;99341.50;;;8.40;100.00
64616;BME280;51027;42.162;24.754;2024-03-02T05:44:35;99343.28;;;8.40;100.00
64616;BME280;51027;42.162;24.754;2024-03-02T05:47:01;99321.50;;;8.11;100.00
64616;BME280;51027;42.162;24.754;2024-03-02T05:49:26;99320.66;;;8.11;100.00
64616;BME280;51027;42.162;24.754;2024-03-02T05:51:52;99351.50;;;8.54;100.00
64616;BME280;51027;42.162;24.754;2024-03-02T05:54:17;99343.66;;;8.27;100.00
64616;BME280;51027;42.162;24.754;2024-03-02T05:56:43;99345.78;;;8.18;100.00
64616;BME280;51027;42.162;24.754;2024-03-02T05:59:08;99343.88;;;8.21;100.00
64616;BME280;51027;42.162;24.754;2024-03-02T06:01:43;99336.88;;;8.22;100.00
64616;BME280;51027;42.162;24.754;2024-03-02T06:04:09;99326.63;;;8.14;100.00
64616;BME280;51027;42.162;24.754;2024-03-02T06:06:36;99305.66;;;8.14;100.00
64616;BME280;51027;42.162;24.754;2024-03-02T06:09:02;99329.19;;;8.42;100.00
64616;BME280;51027;42.162;24.754;2024-03-02T06:11:33;99342.69;;;8.55;100.00
64616;BME280;51027;42.162;24.754;2024-03-02T06:13:59;99338.50;;;8.51;100.00
64616;BME280;51027;42.162;24.754;2024-03-02T06:16:24;99340.19;;;8.52;100.00
64616;BME280;51027;42.162;24.754;2024-03-02T06:18:49;99338.22;;;8.58;100.00
64616;BME280;51027;42.162;24.754;2024-03-02T06:21:15;99340.72;;;8.61;100.00
64616;BME280;51027;42.162;24.754;2024-03-02T06:23:40;99341.97;;;8.51;100.00
64616;BME280;51027;42.162;24.754;2024-03-02T06:26:06;99342.34;;;8.41;100.00
64616;BME280;51027;42.162;24.754;2024-03-02T06:28:31;99354.69;;;8.62;100.00
64616;BME280;51027;42.162;24.754;2024-03-02T06:30:56;99353.97;;;8.82;100.00
64616;BME280;51027;42.162;24.754;2024-03-02T06:33:22;99360.28;;;8.76;100.00
64616;BME280;51027;42.162;24.754;2024-03-02T06:35:47;99358.00;;;8.67;100.00
64616;BME280;51027;42.162;24.754;2024-03-02T06:38:14;99341.69;;;8.59;100.00
64616;BME280;51027;42.162;24.754;2024-03-02T06:40:39;99347.94;;;8.78;100.00
64616;BME280;51027;42.162;24.754;2024-03-02T06:43:06;99361.31;;;8.95;100.00
64616;BME280;51027;42.162;24.754;2024-03-02T06:45:31;99355.25;;;8.93;100.00
64616;BME280;51027;42.162;24.754;2024-03-02T06:47:56;99359.31;;;9.02;100.00
64616;BME280;51027;42.162;24.754;2024-03-02T06:50:22;99350.41;;;9.06;100.00
64616;BME280;51027;42.162;24.754;2024-03-02T06:52:47;99371.38;;;8.84;100.00
64616;BME280;51027;42.162;24.754;2024-03-02T06:55:13;99367.25;;;8.77;100.00
64616;BME280;51027;42.162;24.754;2024-03-02T06:57:38;99381.88;;;8.84;100.00
64616;BME280;51027;42.162;24.754;2024-03-02T07:00:04;99379.03;;;13.90;100.00
64616;BME280;51027;42.162;24.754;2024-03-02T07:02:30;99377.06;;;9.85;100.00
64616;BME280;51027;42.162;24.754;2024-03-02T07:04:55;99382.09;;;9.02;100.00
64616;BME280;51027;42.162;24.754;2024-03-02T07:07:21;99378.50;;;9.04;100.00
64616;BME280;51027;42.162;24.754;2024-03-02T07:09:46;99363.81;;;8.99;100.00
64616;BME280;51027;42.162;24.754;2024-03-02T07:12:13;99373.44;;;9.00;100.00
64616;BME280;51027;42.162;24.754;2024-03-02T07:14:38;99366.09;;;9.08;100.00
64616;BME280;51027;42.162;24.754;2024-03-02T07:17:33;99343.94;;;9.15;100.00
64616;BME280;51027;42.162;24.754;2024-03-02T07:19:59;99356.72;;;9.24;100.00
64616;BME280;51027;42.162;24.754;2024-03-02T07:22:24;99377.09;;;9.17;100.00
64616;BME280;51027;42.162;24.754;2024-03-02T07:24:50;99343.84;;;8.94;100.00
64616;BME280;51027;42.162;24.754;2024-03-02T07:27:16;99364.28;;;8.86;100.00
64616;BME280;51027;42.162;24.754;2024-03-02T07:29:43;99375.88;;;9.04;100.00
64616;BME280;51027;42.162;24.754;2024-03-02T07:32:09;99371.94;;;8.92;100.00
64616;BME280;51027;42.162;24.754;2024-03-02T07:34:36;99373.31;;;9.03;100.00
64616;BME280;51027;42.162;24.754;2024-03-02T07:37:01;99382.19;;;8.99;100.00
64616;BME280;51027;42.162;24.754;2024-03-02T07:39:27;99390.00;;;9.23;100.00
64616;BME280;51027;42.162;24.754;2024-03-02T07:41:52;99395.50;;;9.17;100.00
64616;BME280;51027;42.162;24.754;2024-03-02T07:44:18;99386.75;;;9.17;100.00
64616;BME280;51027;42.162;24.754;2024-03-02T07:46:47;99383.28;;;9.38;100.00
64616;BME280;51027;42.162;24.754;2024-03-02T07:49:15;99375.59;;;9.12;100.00
64616;BME280;51027;42.162;24.754;2024-03-02T07:51:40;99381.44;;;9.18;100.00
64616;BME280;51027;42.162;24.754;2024-03-02T07:54:06;99379.50;;;9.23;100.00
64616;BME280;51027;42.162;24.754;2024-03-02T07:56:31;99375.47;;;9.37;100.00
64616;BME280;51027;42.162;24.754;2024-03-02T07:58:57;99368.56;;;9.34;100.00
64616;BME280;51027;42.162;24.754;2024-03-02T08:01:27;99392.59;;;9.47;100.00
64616;BME280;51027;42.162;24.754;2024-03-02T08:03:53;99384.88;;;9.20;100.00
64616;BME280;51027;42.162;24.754;2024-03-02T08:06:18;99397.53;;;9.11;100.00
64616;BME280;51027;42.162;24.754;2024-03-02T08:08:46;99394.50;;;9.43;100.00
64616;BME280;51027;42.162;24.754;2024-03-02T08:11:12;99398.69;;;9.26;100.00
64616;BME280;51027;42.162;24.754;2024-03-02T08:13:37;99396.88;;;9.49;100.00
64616;BME280;51027;42.162;24.754;2024-03-02T08:16:03;99376.94;;;9.22;100.00
64616;BME280;51027;42.162;24.754;2024-03-02T08:18:32;99402.25;;;9.46;100.00
64616;BME280;51027;42.162;24.754;2024-03-02T08:20:57;99384.84;;;9.44;100.00
64616;BME280;51027;42.162;24.754;2024-03-02T08:23:23;99372.47;;;9.24;100.00
64616;BME280;51027;42.162;24.754;2024-03-02T08:25:48;99377.25;;;9.36;100.00
64616;BME280;51027;42.162;24.754;2024-03-02T08:28:14;99380.31;;;9.47;100.00
64616;BME280;51027;42.162;24.754;2024-03-02T08:30:39;99371.81;;;9.63;100.00
64616;BME280;51027;42.162;24.754;2024-03-02T08:33:04;99394.31;;;9.48;100.00
64616;BME280;51027;42.162;24.754;2024-03-02T08:35:31;99388.31;;;9.44;100.00
64616;BME280;51027;42.162;24.754;2024-03-02T08:38:00;99392.94;;;9.38;100.00
64616;BME280;51027;42.162;24.754;2024-03-02T08:40:26;99383.28;;;9.16;100.00
64616;BME280;51027;42.162;24.754;2024-03-02T08:42:52;99375.13;;;9.01;100.00
64616;BME280;51027;42.162;24.754;2024-03-02T08:45:17;99388.72;;;9.12;100.00
64616;BME280;51027;42.162;24.754;2024-03-02T08:47:45;99391.84;;;8.98;100.00
64616;BME280;51027;42.162;24.754;2024-03-02T08:50:11;99383.34;;;9.15;100.00
64616;BME280;51027;42.162;24.754;2024-03-02T08:52:36;99376.88;;;9.23;100.00
64616;BME280;51027;42.162;24.754;2024-03-02T08:55:01;99386.13;;;9.34;100.00
64616;BME280;51027;42.162;24.754;2024-03-02T08:57:27;99384.56;;;9.50;100.00
64616;BME280;51027;42.162;24.754;2024-03-02T08:59:52;99372.75;;;9.62;100.00
64616;BME280;51027;42.162;24.754;2024-03-02T09:02:18;99364.38;;;9.52;100.00
64616;BME280;51027;42.162;24.754;2024-03-02T09:04:43;99382.69;;;9.53;100.00
64616;BME280;51027;42.162;24.754;2024-03-02T09:07:09;99374.69;;;9.57;100.00
64616;BME280;51027;42.162;24.754;2024-03-02T09:09:34;99388.16;;;9.71;100.00
64616;BME280;51027;42.162;24.754;2024-03-02T09:12:00;99379.13;;;9.76;100.00
64616;BME280;51027;42.162;24.754;2024-03-02T09:14:25;99373.50;;;9.86;100.00
64616;BME280;51027;42.162;24.754;2024-03-02T09:16:51;99360.56;;;9.81;100.00
64616;BME280;51027;42.162;24.754;2024-03-02T09:19:16;99379.03;;;10.22;100.00
64616;BME280;51027;42.162;24.754;2024-03-02T09:21:42;99391.34;;;9.99;100.00
64616;BME280;51027;42.162;24.754;2024-03-02T09:24:09;99391.00;;;9.87;100.00
64616;BME280;51027;42.162;24.754;2024-03-02T09:26:35;99389.50;;;9.81;100.00
64616;BME280;51027;42.162;24.754;2024-03-02T09:29:00;99386.53;;;9.67;100.00
64616;BME280;51027;42.162;24.754;2024-03-02T09:31:26;99388.09;;;9.72;100.00
64616;BME280;51027;42.162;24.754;2024-03-02T09:33:51;99389.59;;;9.78;100.00
64616;BME280;51027;42.162;24.754;2024-03-02T09:36:22;99386.44;;;9.90;100.00
64616;BME280;51027;42.162;24.754;2024-03-02T09:38:48;99389.41;;;9.82;100.00
64616;BME280;51027;42.162;24.754;2024-03-02T09:41:14;99392.09;;;9.59;100.00
64616;BME280;51027;42.162;24.754;2024-03-02T09:43:40;99389.59;;;9.78;100.00
64616;BME280;51027;42.162;24.754;2024-03-02T09:46:08;99386.75;;;9.62;100.00
64616;BME280;51027;42.162;24.754;2024-03-02T09:48:34;99391.44;;;9.76;100.00
64616;BME280;51027;42.162;24.754;2024-03-02T09:51:00;99389.41;;;9.82;100.00
64616;BME280;51027;42.162;24.754;2024-03-02T09:53:31;99383.94;;;10.29;100.00
64616;BME280;51027;42.162;24.754;2024-03-02T09:55:56;99385.00;;;10.46;100.00
64616;BME280;51027;42.162;24.754;2024-03-02T09:58:22;99387.78;;;10.63;100.00
64616;BME280;51027;42.162;24.754;2024-03-02T10:00:47;99385.72;;;10.88;100.00
64616;BME280;51027;42.162;24.754;2024-03-02T10:03:14;99377.44;;;10.38;100.00
64616;BME280;51027;42.162;24.754;2024-03-02T10:05:40;99384.94;;;10.47;100.00
64616;BME280;51027;42.162;24.754;2024-03-02T10:08:05;99374.88;;;10.57;100.00
64616;BME280;51027;42.162;24.754;2024-03-02T10:10:39;99385.72;;;10.49;100.00
64616;BME280;51027;42.162;24.754;2024-03-02T10:13:09;99390.56;;;10.18;100.00
64616;BME280;51027;42.162;24.754;2024-03-02T10:15:37;99388.38;;;10.29;100.00
64616;BME280;51027;42.162;24.754;2024-03-02T10:18:08;99379.56;;;10.08;100.00
64616;BME280;51027;42.162;24.754;2024-03-02T10:20:34;99382.53;;;10.21;100.00
64616;BME280;51027;42.162;24.754;2024-03-02T10:23:14;99385.16;;;10.21;100.00
64616;BME280;51027;42.162;24.754;2024-03-02T10:25:40;99380.69;;;10.45;100.00
64616;BME280;51027;42.162;24.754;2024-03-02T10:28:06;99382.84;;;10.35;100.00
64616;BME280;51027;42.162;24.754;2024-03-02T10:30:34;99377.19;;;10.24;100.00
64616;BME280;51027;42.162;24.754;2024-03-02T10:33:01;99377.22;;;10.02;100.00
64616;BME280;51027;42.162;24.754;2024-03-02T10:35:27;99372.91;;;9.99;100.00
64616;BME280;51027;42.162;24.754;2024-03-02T10:37:53;99370.03;;;10.05;100.00
64616;BME280;51027;42.162;24.754;2024-03-02T10:40:22;99365.03;;;10.20;100.00
64616;BME280;51027;42.162;24.754;2024-03-02T10:42:49;99357.69;;;10.28;100.00
64616;BME280;51027;42.162;24.754;2024-03-02T10:45:16;99350.69;;;10.06;100.00
64616;BME280;51027;42.162;24.754;2024-03-02T10:47:46;99350.88;;;10.24;100.00
64616;BME280;51027;42.162;24.754;2024-03-02T10:50:12;99343.13;;;10.19;100.00
64616;BME280;51027;42.162;24.754;2024-03-02T10:52:38;99346.91;;;10.34;100.00
64616;BME280;51027;42.162;24.754;2024-03-02T10:55:07;99344.53;;;10.28;100.00
64616;BME280;51027;42.162;24.754;2024-03-02T10:57:54;99341.28;;;10.23;100.00
64616;BME280;51027;42.162;24.754;2024-03-02T11:00:24;99331.50;;;10.04;100.00
64616;BME280;51027;42.162;24.754;2024-03-02T11:02:56;99334.00;;;10.07;100.00
64616;BME280;51027;42.162;24.754;2024-03-02T11:05:28;99334.53;;;10.16;100.00
64616;BME280;51027;42.162;24.754;2024-03-02T11:08:00;99321.63;;;9.89;100.00
64616;BME280;51027;42.162;24.754;2024-03-02T11:10:28;99326.88;;;10.09;100.00
64616;BME280;51027;42.162;24.754;2024-03-02T11:13:04;99331.50;;;10.04;100.00
64616;BME280;51027;42.162;24.754;2024-03-02T11:15:31;99329.53;;;10.30;100.00
64616;BME280;51027;42.162;24.754;2024-03-02T11:17:57;99327.44;;;10.38;100.00
64616;BME280;51027;42.162;24.754;2024-03-02T11:20:23;99321.38;;;10.36;100.00
64616;BME280;51027;42.162;24.754;2024-03-02T11:22:50;99327.50;;;10.36;100.00
64616;BME280;51027;42.162;24.754;2024-03-02T11:25:23;99308.22;;;10.36;100.00
64616;BME280;51027;42.162;24.754;2024-03-02T11:32:59;99314.59;;;10.70;100.00
64616;BME280;51027;42.162;24.754;2024-03-02T11:35:26;99304.41;;;10.81;100.00
64616;BME280;51027;42.162;24.754;2024-03-02T11:37:54;99298.28;;;10.61;100.00
64616;BME280;51027;42.162;24.754;2024-03-02T11:40:23;99298.06;;;10.66;100.00
64616;BME280;51027;42.162;24.754;2024-03-02T11:42:49;99304.75;;;10.92;100.00
64616;BME280;51027;42.162;24.754;2024-03-02T11:45:22;99297.94;;;10.88;100.00
64616;BME280;51027;42.162;24.754;2024-03-02T11:47:51;99296.94;;;10.53;100.00
64616;BME280;51027;42.162;24.754;2024-03-02T11:50:29;99288.53;;;11.01;100.00
64616;BME280;51027;42.162;24.754;2024-03-02T11:52:56;99284.53;;;11.47;100.00
64616;BME280;51027;42.162;24.754;2024-03-02T11:55:25;99288.06;;;11.82;100.00
64616;BME280;51027;42.162;24.754;2024-03-02T11:57:52;99297.84;;;11.08;100.00
64616;BME280;51027;42.162;24.754;2024-03-02T12:00:18;99296.00;;;11.64;100.00
64616;BME280;51027;42.162;24.754;2024-03-02T12:02:46;99291.13;;;11.73;100.00
64616;BME280;51027;42.162;24.754;2024-03-02T12:05:15;99276.88;;;11.77;100.00
64616;BME280;51027;42.162;24.754;2024-03-02T12:07:42;99257.69;;;11.74;100.00
64616;BME280;51027;42.162;24.754;2024-03-02T12:10:08;99287.13;;;10.94;100.00
64616;BME280;51027;42.162;24.754;2024-03-02T12:12:34;99278.72;;;11.05;100.00
64616;BME280;51027;42.162;24.754;2024-03-02T12:14:59;99277.78;;;11.23;100.00
64616;BME280;51027;42.162;24.754;2024-03-02T12:17:26;99282.81;;;11.46;100.00
64616;BME280;51027;42.162;24.754;2024-03-02T12:19:51;99283.47;;;10.78;100.00
64616;BME280;51027;42.162;24.754;2024-03-02T12:22:18;99266.06;;;10.75;100.00
64616;BME280;51027;42.162;24.754;2024-03-02T12:24:44;99267.34;;;10.85;100.00
64616;BME280;51027;42.162;24.754;2024-03-02T12:27:14;99250.63;;;11.57;100.00
64616;BME280;51027;42.162;24.754;2024-03-02T12:29:40;99263.25;;;10.97;100.00
64616;BME280;51027;42.162;24.754;2024-03-02T12:32:06;99273.22;;;11.45;100.00
64616;BME280;51027;42.162;24.754;2024-03-02T12:34:32;99263.06;;;11.55;100.00
64616;BME280;51027;42.162;24.754;2024-03-02T12:36:58;99246.03;;;11.43;100.00
64616;BME280;51027;42.162;24.754;2024-03-02T12:39:23;99281.03;;;11.11;100.00
64616;BME280;51027;42.162;24.754;2024-03-02T12:41:50;99262.03;;;11.04;100.00
64616;BME280;51027;42.162;24.754;2024-03-02T12:44:19;99275.78;;;10.92;100.00
64616;BME280;51027;42.162;24.754;2024-03-02T12:46:44;99277.63;;;10.90;100.00
64616;BME280;51027;42.162;24.754;2024-03-02T12:49:15;99268.19;;;10.86;100.00
64616;BME280;51027;42.162;24.754;2024-03-02T12:51:42;99289.53;;;10.99;100.00
64616;BME280;51027;42.162;24.754;2024-03-02T12:54:08;99287.53;;;10.66;100.00
64616;BME280;51027;42.162;24.754;2024-03-02T12:56:35;99281.56;;;10.44;100.00
64616;BME280;51027;42.162;24.754;2024-03-02T12:59:01;99282.78;;;10.74;100.00
64616;BME280;51027;42.162;24.754;2024-03-02T13:01:26;99291.22;;;11.00;100.00
64616;BME280;51027;42.162;24.754;2024-03-02T13:03:53;99287.25;;;10.91;100.00
64616;BME280;51027;42.162;24.754;2024-03-02T13:06:20;99274.31;;;10.86;100.00
64616;BME280;51027;42.162;24.754;2024-03-02T13:08:46;99306.84;;;10.85;100.00
64616;BME280;51027;42.162;24.754;2024-03-02T13:11:12;99283.53;;;10.38;100.00
64616;BME280;51027;42.162;24.754;2024-03-02T13:13:39;99300.34;;;10.92;100.00
64616;BME280;51027;42.162;24.754;2024-03-02T13:16:11;99291.09;;;10.46;100.00
64616;BME280;51027;42.162;24.754;2024-03-02T13:18:41;99294.78;;;10.61;100.00
64616;BME280;51027;42.162;24.754;2024-03-02T13:21:07;99306.06;;;10.64;100.00
64616;BME280;51027;42.162;24.754;2024-03-02T13:23:33;99301.03;;;10.39;100.00
64616;BME280;51027;42.162;24.754;2024-03-02T13:25:59;99302.16;;;10.14;100.00
64616;BME280;51027;42.162;24.754;2024-03-02T13:28:25;99301.25;;;10.35;100.00
64616;BME280;51027;42.162;24.754;2024-03-02T13:30:50;99299.69;;;10.50;100.00
64616;BME280;51027;42.162;24.754;2024-03-02T13:33:16;99302.13;;;10.54;100.00
64616;BME280;51027;42.162;24.754;2024-03-02T13:35:44;99306.31;;;10.58;100.00
64616;BME280;51027;42.162;24.754;2024-03-02T13:38:10;99307.03;;;10.62;100.00
64616;BME280;51027;42.162;24.754;2024-03-02T13:40:35;99304.94;;;10.50;100.00
64616;BME280;51027;42.162;24.754;2024-03-02T13:43:02;99305.22;;;10.25;100.00
64616;BME280;51027;42.162;24.754;2024-03-02T13:45:28;99313.50;;;10.55;100.00
64616;BME280;51027;42.162;24.754;2024-03-02T13:47:53;99311.03;;;10.89;100.00
64616;BME280;51027;42.162;24.754;2024-03-02T13:50:19;99310.47;;;10.64;100.00
64616;BME280;51027;42.162;24.754;2024-03-02T13:52:45;99313.59;;;10.72;100.00
64616;BME280;51027;42.162;24.754;2024-03-02T13:55:10;99315.59;;;10.67;100.00
64616;BME280;51027;42.162;24.754;2024-03-02T13:57:36;99313.97;;;10.64;100.00
64616;BME280;51027;42.162;24.754;2024-03-02T14:00:01;99303.22;;;10.30;100.00
64616;BME280;51027;42.162;24.754;2024-03-02T14:02:28;99307.47;;;10.53;100.00
64616;BME280;51027;42.162;24.754;2024-03-02T14:04:53;99317.16;;;10.71;100.00
64616;BME280;51027;42.162;24.754;2024-03-02T14:07:19;99310.25;;;10.68;100.00
64616;BME280;51027;42.162;24.754;2024-03-02T14:09:44;99312.19;;;10.84;100.00
64616;BME280;51027;42.162;24.754;2024-03-02T14:12:10;99307.34;;;10.93;100.00
64616;BME280;51027;42.162;24.754;2024-03-02T14:14:38;99306.28;;;10.98;100.00
64616;BME280;51027;42.162;24.754;2024-03-02T14:17:04;99305.91;;;10.86;100.00
64616;BME280;51027;42.162;24.754;2024-03-02T14:19:31;99303.34;;;10.85;100.00
64616;BME280;51027;42.162;24.754;2024-03-02T14:21:57;99308.41;;;10.89;100.00
64616;BME280;51027;42.162;24.754;2024-03-02T14:24:23;99296.44;;;10.82;100.00
64616;BME280;51027;42.162;24.754;2024-03-02T14:26:51;99302.50;;;10.06;100.00
64616;BME280;51027;42.162;24.754;2024-03-02T14:29:16;99303.72;;;10.38;100.00
64616;BME280;51027;42.162;24.754;2024-03-02T14:31:43;99306.19;;;10.43;100.00
64616;BME280;51027;42.162;24.754;2024-03-02T14:34:09;99304.44;;;10.23;100.00
64616;BME280;51027;42.162;24.754;2024-03-02T14:36:34;99299.72;;;10.09;100.00
64616;BME280;51027;42.162;24.754;2024-03-02T14:38:59;99301.50;;;9.88;100.00
64616;BME280;51027;42.162;24.754;2024-03-02T14:41:25;99303.03;;;9.94;100.00
64616;BME280;51027;42.162;24.754;2024-03-02T14:43:50;99304.44;;;10.23;100.00
64616;BME280;51027;42.162;24.754;2024-03-02T14:46:17;99303.59;;;10.00;100.00
64616;BME280;51027;42.162;24.754;2024-03-02T14:48:43;99298.47;;;9.77;100.00
64616;BME280;51027;42.162;24.754;2024-03-02T14:51:09;99266.81;;;9.38;100.00
64616;BME280;51027;42.162;24.754;2024-03-02T14:53:35;99295.84;;;9.77;100.00
64616;BME280;51027;42.162;24.754;2024-03-02T14:56:02;99297.81;;;9.92;100.00
64616;BME280;51027;42.162;24.754;2024-03-02T14:58:27;99292.56;;;9.92;100.00
64616;BME280;51027;42.162;24.754;2024-03-02T15:00:52;99298.22;;;9.83;100.00
64616;BME280;51027;42.162;24.754;2024-03-02T15:03:18;99295.28;;;9.69;100.00
64616;BME280;51027;42.162;24.754;2024-03-02T15:05:44;99297.69;;;9.75;100.00
64616;BME280;51027;42.162;24.754;2024-03-02T15:08:11;99283.69;;;9.74;100.00
64616;BME280;51027;42.162;24.754;2024-03-02T15:10:36;99307.75;;;10.06;100.00
64616;BME280;51027;42.162;24.754;2024-03-02T15:13:02;99300.38;;;10.14;100.00
64616;BME280;51027;42.162;24.754;2024-03-02T15:15:28;99299.16;;;10.23;100.00
64616;BME280;51027;42.162;24.754;2024-03-02T15:17:53;99314.19;;;10.39;100.00
64616;BME280;51027;42.162;24.754;2024-03-02T15:20:19;99302.16;;;10.34;100.00
64616;BME280;51027;42.162;24.754;2024-03-02T15:22:47;99323.09;;;10.37;100.00
64616;BME280;51027;42.162;24.754;2024-03-02T15:25:12;99313.66;;;10.31;100.00
64616;BME280;51027;42.162;24.754;2024-03-02T15:27:38;99304.66;;;10.37;100.00
64616;BME280;51027;42.162;24.754;2024-03-02T15:30:04;99318.97;;;10.50;100.00
64616;BME280;51027;42.162;24.754;2024-03-02T15:32:29;99324.97;;;10.54;100.00
64616;BME280;51027;42.162;24.754;2024-03-02T15:34:55;99321.13;;;10.42;100.00
64616;BME280;51027;42.162;24.754;2024-03-02T15:37:20;99328.13;;;10.21;100.00
64616;BME280;51027;42.162;24.754;2024-03-02T15:39:46;99325.34;;;10.26;100.00
64616;BME280;51027;42.162;24.754;2024-03-02T15:42:11;99339.97;;;10.52;100.00
64616;BME280;51027;42.162;24.754;2024-03-02T15:44:37;99342.69;;;10.30;100.00
64616;BME280;51027;42.162;24.754;2024-03-02T15:47:03;99340.31;;;10.44;100.00
64616;BME280;51027;42.162;24.754;2024-03-02T15:49:29;99338.00;;;10.57;100.00
64616;BME280;51027;42.162;24.754;2024-03-02T15:51:57;99344.13;;;10.57;100.00
64616;BME280;51027;42.162;24.754;2024-03-02T15:54:25;99341.41;;;10.59;100.00
64616;BME280;51027;42.162;24.754;2024-03-02T15:56:51;99337.22;;;10.55;100.00
64616;BME280;51027;42.162;24.754;2024-03-02T15:59:16;99346.81;;;10.56;100.00
64616;BME280;51027;42.162;24.754;2024-03-02T16:01:42;99347.56;;;10.39;100.00
64616;BME280;51027;42.162;24.754;2024-03-02T16:04:08;99345.31;;;10.30;100.00
64616;BME280;51027;42.162;24.754;2024-03-02T16:06:34;99343.94;;;10.42;100.00
64616;BME280;51027;42.162;24.754;2024-03-02T16:08:59;99344.19;;;10.15;100.00
64616;BME280;51027;42.162;24.754;2024-03-02T16:11:25;99342.81;;;10.06;100.00
64616;BME280;51027;42.162;24.754;2024-03-02T16:13:51;99335.13;;;10.02;100.00
64616;BME280;51027;42.162;24.754;2024-03-02T16:16:17;99325.09;;;9.90;100.00
64616;BME280;51027;42.162;24.754;2024-03-02T16:18:42;99339.63;;;9.98;100.00
64616;BME280;51027;42.162;24.754;2024-03-02T16:21:08;99338.31;;;10.08;100.00
64616;BME280;51027;42.162;24.754;2024-03-02T16:23:34;99320.03;;;9.85;100.00
64616;BME280;51027;42.162;24.754;2024-03-02T16:26:00;99327.25;;;9.80;100.00
64616;BME280;51027;42.162;24.754;2024-03-02T16:28:25;99318.25;;;9.65;100.00
64616;BME280;51027;42.162;24.754;2024-03-02T16:30:51;99330.22;;;9.72;100.00
64616;BME280;51027;42.162;24.754;2024-03-02T16:33:18;99348.44;;;9.77;100.00
64616;BME280;51027;42.162;24.754;2024-03-02T16:35:43;99353.56;;;9.80;100.00
64616;BME280;51027;42.162;24.754;2024-03-02T16:38:12;99360.78;;;9.75;100.00
64616;BME280;51027;42.162;24.754;2024-03-02T16:40:39;99365.69;;;10.04;100.00
64616;BME280;51027;42.162;24.754;2024-03-02T16:43:05;99360.91;;;10.14;100.00
64616;BME280;51027;42.162;24.754;2024-03-02T16:45:31;99366.75;;;10.22;100.00
64616;BME280;51027;42.162;24.754;2024-03-02T16:47:57;99376.94;;;10.08;100.00
64616;BME280;51027;42.162;24.754;2024-03-02T16:50:23;99374.16;;;9.91;100.00
64616;BME280;51027;42.162;24.754;2024-03-02T16:52:48;99394.88;;;9.98;100.00
64616;BME280;51027;42.162;24.754;2024-03-02T16:55:14;99392.28;;;10.19;100.00
64616;BME280;51027;42.162;24.754;2024-03-02T16:57:40;99377.94;;;10.05;100.00
64616;BME280;51027;42.162;24.754;2024-03-02T17:00:06;99387.94;;;10.18;100.00
64616;BME280;51027;42.162;24.754;2024-03-02T17:02:33;99392.84;;;10.27;100.00
64616;BME280;51027;42.162;24.754;2024-03-02T17:04:59;99397.69;;;10.16;100.00
64616;BME280;51027;42.162;24.754;2024-03-02T17:07:24;99395.69;;;10.21;100.00
64616;BME280;51027;42.162;24.754;2024-03-02T17:09:51;99399.25;;;10.20;100.00
64616;BME280;51027;42.162;24.754;2024-03-02T17:12:18;99375.84;;;10.14;100.00
64616;BME280;51027;42.162;24.754;2024-03-02T17:14:43;99400.88;;;10.24;100.00
64616;BME280;51027;42.162;24.754;2024-03-02T17:17:10;99399.44;;;10.15;100.00
64616;BME280;51027;42.162;24.754;2024-03-02T17:19:35;99401.63;;;10.05;100.00